sensor_id;sensor_type;location;lat;lon;timestamp;pressure;altitude;pressure_sealevel;temperature;humidity
80682;BME280;70045;40.200;44.582;2024-01-06T00:01:48;86212.19;;;4.00;61.19
80682;BME280;70045;40.200;44.582;2024-01-06T00:04:13;86217.69;;;3.99;61.57
80682;BME280;70045;40.200;44.582;2024-01-06T00:06:38;86209.25;;;3.94;61.23
80682;BME280;70045;40.200;44.582;2024-01-06T00:09:15;86230.50;;;3.99;61.21
80682;BME280;70045;40.200;44.582;2024-01-06T00:11:40;86224.66;;;4.02;61.57
80682;BME280;70045;40.200;44.582;2024-01-06T00:14:06;86228.28;;;3.97;61.69
80682;BME280;70045;40.200;44.582;2024-01-06T00:16:31;86218.03;;;3.93;61.72
80682;BME280;70045;40.200;44.582;2024-01-06T00:18:56;86216.56;;;3.89;61.20
80682;BME280;70045;40.200;44.582;2024-01-06T00:21:32;86216.94;;;3.87;61.45
80682;BME280;70045;40.200;44.582;2024-01-06T00:23:57;86211.78;;;3.80;61.80
80682;BME280;70045;40.200;44.582;2024-01-06T00:26:23;86210.69;;;3.77;60.59
80682;BME280;70045;40.200;44.582;2024-01-06T00:28:48;86226.78;;;3.82;61.36
80682;BME280;70045;40.200;44.582;2024-01-06T00:31:13;86236.34;;;3.88;60.87
80682;BME280;70045;40.200;44.582;2024-01-06T00:33:50;86231.22;;;3.88;61.17
80682;BME280;70045;40.200;44.582;2024-01-06T00:36:15;86239.59;;;3.71;63.50
80682;BME280;70045;40.200;44.582;2024-01-06T00:38:41;86236.66;;;3.62;63.21
80682;BME280;70045;40.200;44.582;2024-01-06T00:41:06;86237.72;;;3.61;63.98
80682;BME280;70045;40.200;44.582;2024-01-06T00:43:31;86245.41;;;3.61;64.08
80682;BME280;70045;40.200;44.582;2024-01-06T00:46:07;86255.28;;;3.51;64.11
80682;BME280;70045;40.200;44.582;2024-01-06T00:48:32;86264.81;;;3.54;64.51
80682;BME280;70045;40.200;44.582;2024-01-06T00:50:58;86269.56;;;3.52;65.07
80682;BME280;70045;40.200;44.582;2024-01-06T00:53:24;86275.78;;;3.51;65.49
80682;BME280;70045;40.200;44.582;2024-01-06T00:55:49;86273.94;;;3.48;65.09
80682;BME280;70045;40.200;44.582;2024-01-06T00:58:25;86277.97;;;3.49;65.29
80682;BME280;70045;40.200;44.582;2024-01-06T01:00:50;86275.06;;;3.47;65.15
80682;BME280;70045;40.200;44.582;2024-01-06T01:03:16;86280.13;;;3.40;64.97
80682;BME280;70045;40.200;44.582;2024-01-06T01:05:41;86273.19;;;3.44;64.66
80682;BME280;70045;40.200;44.582;2024-01-06T01:08:07;86279.06;;;3.45;64.36
80682;BME280;70045;40.200;44.582;2024-01-06T01:10:43;86285.31;;;3.47;64.35
80682;BME280;70045;40.200;44.582;2024-01-06T01:13:08;86287.47;;;3.49;63.85
80682;BME280;70045;40.200;44.582;2024-01-06T01:15:34;86296.31;;;3.55;64.01
80682;BME280;70045;40.200;44.582;2024-01-06T01:17:59;86301.47;;;3.66;64.21
80682;BME280;70045;40.200;44.582;2024-01-06T01:20:25;86301.84;;;3.68;64.25
80682;BME280;70045;40.200;44.582;2024-01-06T01:23:01;86306.66;;;3.80;63.64
80682;BME280;70045;40.200;44.582;2024-01-06T01:25:26;86308.88;;;3.89;64.27
80682;BME280;70045;40.200;44.582;2024-01-06T01:27:52;86305.25;;;4.01;63.94
80682;BME280;70045;40.200;44.582;2024-01-06T01:30:17;86306.00;;;4.05;63.86
80682;BME280;70045;40.200;44.582;2024-01-06T01:32:42;86307.09;;;4.07;64.13
80682;BME280;70045;40.200;44.582;2024-01-06T01:35:19;86307.81;;;4.01;63.56
80682;BME280;70045;40.200;44.582;2024-01-06T01:37:44;86312.59;;;4.02;63.36
80682;BME280;70045;40.200;44.582;2024-01-06T01:40:10;86322.47;;;4.00;63.46
80682;BME280;70045;40.200;44.582;2024-01-06T01:42:36;86323.56;;;3.95;64.73
80682;BME280;70045;40.200;44.582;2024-01-06T01:45:01;86321.41;;;4.01;64.38
80682;BME280;70045;40.200;44.582;2024-01-06T01:47:37;86321.41;;;4.05;63.84
80682;BME280;70045;40.200;44.582;2024-01-06T01:50:03;86321.78;;;4.07;64.36
80682;BME280;70045;40.200;44.582;2024-01-06T01:52:28;86324.69;;;4.05;64.28
80682;BME280;70045;40.200;44.582;2024-01-06T01:54:54;86319.19;;;4.00;64.24
80682;BME280;70045;40.200;44.582;2024-01-06T01:57:20;86317.69;;;3.91;63.95
80682;BME280;70045;40.200;44.582;2024-01-06T01:59:56;86312.16;;;3.82;64.83
80682;BME280;70045;40.200;44.582;2024-01-06T02:02:22;86327.16;;;3.80;64.90
80682;BME280;70045;40.200;44.582;2024-01-06T02:04:48;86333.78;;;3.85;64.96
80682;BME280;70045;40.200;44.582;2024-01-06T02:07:13;86349.56;;;3.90;64.58
80682;BME280;70045;40.200;44.582;2024-01-06T02:09:39;86365.00;;;4.01;65.02
80682;BME280;70045;40.200;44.582;2024-01-06T02:12:15;86370.53;;;4.10;64.73
80682;BME280;70045;40.200;44.582;2024-01-06T02:14:40;86371.25;;;4.11;64.49
80682;BME280;70045;40.200;44.582;2024-01-06T02:17:06;86371.63;;;4.13;65.35
80682;BME280;70045;40.200;44.582;2024-01-06T02:19:31;86374.16;;;4.06;65.61
80682;BME280;70045;40.200;44.582;2024-01-06T02:21:56;86375.66;;;4.14;65.04
80682;BME280;70045;40.200;44.582;2024-01-06T02:24:33;86370.91;;;4.16;65.29
80682;BME280;70045;40.200;44.582;2024-01-06T02:26:58;86366.09;;;4.04;65.99
80682;BME280;70045;40.200;44.582;2024-01-06T02:29:24;86371.59;;;4.09;64.56
80682;BME280;70045;40.200;44.582;2024-01-06T02:31:49;86377.09;;;4.08;63.57
80682;BME280;70045;40.200;44.582;2024-01-06T02:34:15;86377.88;;;4.19;62.91
80682;BME280;70045;40.200;44.582;2024-01-06T02:36:51;86366.88;;;4.15;nan
80682;BME280;70045;40.200;44.582;2024-01-06T02:39:16;86366.91;;;4.22;58.87
80682;BME280;70045;40.200;44.582;2024-01-06T02:41:42;86371.63;;;4.17;57.52
80682;BME280;70045;40.200;44.582;2024-01-06T02:44:07;86382.63;;;4.13;58.04
80682;BME280;70045;40.200;44.582;2024-01-06T02:46:32;86391.03;;;4.07;58.21
80682;BME280;70045;40.200;44.582;2024-01-06T02:49:09;86388.81;;;4.02;58.01
80682;BME280;70045;40.200;44.582;2024-01-06T02:51:34;86383.66;;;3.94;58.63
80682;BME280;70045;40.200;44.582;2024-01-06T02:54:00;86390.22;;;3.88;56.92
80682;BME280;70045;40.200;44.582;2024-01-06T02:56:25;86406.69;;;3.84;57.36
80682;BME280;70045;40.200;44.582;2024-01-06T02:58:50;86415.81;;;3.77;56.37
80682;BME280;70045;40.200;44.582;2024-01-06T03:01:27;86408.81;;;3.74;56.85
80682;BME280;70045;40.200;44.582;2024-01-06T03:03:52;86415.00;;;3.66;56.58
80682;BME280;70045;40.200;44.582;2024-01-06T03:06:18;86421.56;;;3.60;56.73
80682;BME280;70045;40.200;44.582;2024-01-06T03:08:43;86425.56;;;3.57;55.20
80682;BME280;70045;40.200;44.582;2024-01-06T03:11:10;86420.13;;;3.66;56.73
80682;BME280;70045;40.200;44.582;2024-01-06T03:13:46;86418.69;;;3.69;55.75
80682;BME280;70045;40.200;44.582;2024-01-06T03:16:11;86421.19;;;3.58;55.25
80682;BME280;70045;40.200;44.582;2024-01-06T03:18:37;86423.06;;;3.65;56.29
80682;BME280;70045;40.200;44.582;2024-01-06T03:21:02;86437.00;;;3.71;55.97
80682;BME280;70045;40.200;44.582;2024-01-06T03:23:28;86437.72;;;3.68;55.37
80682;BME280;70045;40.200;44.582;2024-01-06T03:26:32;86412.34;;;3.48;54.64
80682;BME280;70045;40.200;44.582;2024-01-06T03:28:57;86440.63;;;3.63;55.56
80682;BME280;70045;40.200;44.582;2024-01-06T03:31:22;86455.28;;;3.66;55.77
80682;BME280;70045;40.200;44.582;2024-01-06T03:33:48;86458.91;;;3.57;56.02
80682;BME280;70045;40.200;44.582;2024-01-06T03:36:24;86443.47;;;3.50;56.00
80682;BME280;70045;40.200;44.582;2024-01-06T03:38:49;86464.75;;;3.54;56.30
80682;BME280;70045;40.200;44.582;2024-01-06T03:41:14;86466.59;;;3.57;56.17
80682;BME280;70045;40.200;44.582;2024-01-06T03:43:40;86462.16;;;3.51;56.50
80682;BME280;70045;40.200;44.582;2024-01-06T03:46:05;86464.66;;;3.44;56.25
80682;BME280;70045;40.200;44.582;2024-01-06T03:48:42;86478.56;;;3.43;57.24
80682;BME280;70045;40.200;44.582;2024-01-06T03:51:07;86511.53;;;3.44;56.69
80682;BME280;70045;40.200;44.582;2024-01-06T03:53:33;86492.47;;;3.42;57.38
80682;BME280;70045;40.200;44.582;2024-01-06T03:55:58;86492.47;;;3.42;56.87
80682;BME280;70045;40.200;44.582;2024-01-06T03:58:23;86501.25;;;3.37;56.72
80682;BME280;70045;40.200;44.582;2024-01-06T04:01:00;86513.66;;;3.35;56.48
80682;BME280;70045;40.200;44.582;2024-01-06T04:03:26;86512.13;;;3.27;56.78
80682;BME280;70045;40.200;44.582;2024-01-06T04:05:51;86525.69;;;3.31;57.21
80682;BME280;70045;40.200;44.582;2024-01-06T04:08:17;86522.38;;;3.27;57.05
80682;BME280;70045;40.200;44.582;2024-01-06T04:10:43;86529.72;;;3.28;57.91
80682;BME280;70045;40.200;44.582;2024-01-06T04:13:46;86550.09;;;3.17;58.17
80682;BME280;70045;40.200;44.582;2024-01-06T04:16:12;86558.19;;;3.19;58.63
80682;BME280;70045;40.200;44.582;2024-01-06T04:18:38;86567.06;;;3.33;58.81
80682;BME280;70045;40.200;44.582;2024-01-06T04:21:03;86583.28;;;3.41;58.78
80682;BME280;70045;40.200;44.582;2024-01-06T04:23:40;86586.19;;;3.39;58.70
80682;BME280;70045;40.200;44.582;2024-01-06T04:26:05;86585.34;;;3.28;59.35
80682;BME280;70045;40.200;44.582;2024-01-06T04:28:31;86588.25;;;3.26;59.43
80682;BME280;70045;40.200;44.582;2024-01-06T04:30:56;86589.31;;;3.22;59.80
80682;BME280;70045;40.200;44.582;2024-01-06T04:33:21;86580.84;;;3.17;59.26
80682;BME280;70045;40.200;44.582;2024-01-06T04:35:58;86581.59;;;3.18;58.53
80682;BME280;70045;40.200;44.582;2024-01-06T04:38:24;86586.00;;;3.21;58.87
80682;BME280;70045;40.200;44.582;2024-01-06T04:40:49;86596.94;;;3.14;58.65
80682;BME280;70045;40.200;44.582;2024-01-06T04:43:14;86600.06;;;3.00;58.72
80682;BME280;70045;40.200;44.582;2024-01-06T04:45:40;86608.78;;;2.96;58.77
80682;BME280;70045;40.200;44.582;2024-01-06T04:48:16;86600.88;;;3.08;59.08
80682;BME280;70045;40.200;44.582;2024-01-06T04:50:41;86600.56;;;3.13;58.62
80682;BME280;70045;40.200;44.582;2024-01-06T04:53:07;86595.44;;;3.13;58.25
80682;BME280;70045;40.200;44.582;2024-01-06T04:55:33;86606.50;;;3.21;57.86
80682;BME280;70045;40.200;44.582;2024-01-06T04:57:58;86631.44;;;3.28;58.27
80682;BME280;70045;40.200;44.582;2024-01-06T05:00:34;86640.63;;;3.29;57.40
80682;BME280;70045;40.200;44.582;2024-01-06T05:02:59;86647.66;;;3.35;57.21
80682;BME280;70045;40.200;44.582;2024-01-06T05:05:25;86644.78;;;3.41;57.28
80682;BME280;70045;40.200;44.582;2024-01-06T05:07:50;86647.84;;;3.53;56.40
80682;BME280;70045;40.200;44.582;2024-01-06T05:10:15;86643.53;;;3.61;56.40
80682;BME280;70045;40.200;44.582;2024-01-06T05:12:52;86656.47;;;3.75;55.85
80682;BME280;70045;40.200;44.582;2024-01-06T05:15:17;86660.47;;;3.73;56.00
80682;BME280;70045;40.200;44.582;2024-01-06T05:17:43;86662.63;;;3.67;56.68
80682;BME280;70045;40.200;44.582;2024-01-06T05:20:08;86664.81;;;3.65;56.26
80682;BME280;70045;40.200;44.582;2024-01-06T05:22:34;86670.25;;;3.60;55.79
80682;BME280;70045;40.200;44.582;2024-01-06T05:25:10;86663.31;;;3.64;55.65
80682;BME280;70045;40.200;44.582;2024-01-06T05:27:35;86670.69;;;3.69;56.27
80682;BME280;70045;40.200;44.582;2024-01-06T05:30:01;86679.13;;;3.70;56.17
80682;BME280;70045;40.200;44.582;2024-01-06T05:32:27;86675.38;;;3.60;55.42
80682;BME280;70045;40.200;44.582;2024-01-06T05:34:52;86675.72;;;3.58;55.57
80682;BME280;70045;40.200;44.582;2024-01-06T05:37:28;86669.25;;;3.72;55.12
80682;BME280;70045;40.200;44.582;2024-01-06T05:39:53;86678.47;;;3.80;53.81
80682;BME280;70045;40.200;44.582;2024-01-06T05:42:19;86683.69;;;3.87;52.36
80682;BME280;70045;40.200;44.582;2024-01-06T05:44:44;86675.41;;;4.01;53.27
80682;BME280;70045;40.200;44.582;2024-01-06T05:47:09;86680.16;;;4.03;52.36
80682;BME280;70045;40.200;44.582;2024-01-06T05:49:46;86681.69;;;4.11;51.07
80682;BME280;70045;40.200;44.582;2024-01-06T05:52:11;86688.69;;;4.14;50.31
80682;BME280;70045;40.200;44.582;2024-01-06T05:54:40;86695.38;;;4.22;49.58
80682;BME280;70045;40.200;44.582;2024-01-06T05:57:06;86695.31;;;4.15;48.77
80682;BME280;70045;40.200;44.582;2024-01-06T05:59:34;86682.84;;;4.17;48.83
80682;BME280;70045;40.200;44.582;2024-01-06T06:02:11;86671.78;;;4.09;47.82
80682;BME280;70045;40.200;44.582;2024-01-06T06:04:36;86683.50;;;4.07;46.09
80682;BME280;70045;40.200;44.582;2024-01-06T06:07:02;86685.41;;;4.13;47.47
80682;BME280;70045;40.200;44.582;2024-01-06T06:09:28;86688.72;;;4.18;47.48
80682;BME280;70045;40.200;44.582;2024-01-06T06:11:53;86701.31;;;4.33;46.61
80682;BME280;70045;40.200;44.582;2024-01-06T06:14:29;86708.63;;;4.31;46.53
80682;BME280;70045;40.200;44.582;2024-01-06T06:16:54;86709.34;;;4.28;46.50
80682;BME280;70045;40.200;44.582;2024-01-06T06:19:19;86704.53;;;4.23;45.53
80682;BME280;70045;40.200;44.582;2024-01-06T06:21:45;86708.63;;;4.31;45.87
80682;BME280;70045;40.200;44.582;2024-01-06T06:24:10;86715.63;;;4.34;46.68
80682;BME280;70045;40.200;44.582;2024-01-06T06:26:47;86709.47;;;4.43;45.70
80682;BME280;70045;40.200;44.582;2024-01-06T06:29:12;86716.88;;;4.51;46.33
80682;BME280;70045;40.200;44.582;2024-01-06T06:31:37;86720.59;;;4.61;46.66
80682;BME280;70045;40.200;44.582;2024-01-06T06:34:03;86732.78;;;4.71;46.63
80682;BME280;70045;40.200;44.582;2024-01-06T06:36:28;86733.97;;;4.85;46.13
80682;BME280;70045;40.200;44.582;2024-01-06T06:39:05;86737.25;;;4.82;46.38
80682;BME280;70045;40.200;44.582;2024-01-06T06:41:30;86726.63;;;4.83;47.30
80682;BME280;70045;40.200;44.582;2024-01-06T06:43:57;86736.94;;;4.87;45.71
80682;BME280;70045;40.200;44.582;2024-01-06T06:46:22;86738.00;;;4.86;46.38
80682;BME280;70045;40.200;44.582;2024-01-06T06:48:48;86737.63;;;4.80;46.68
80682;BME280;70045;40.200;44.582;2024-01-06T06:51:24;86735.34;;;4.71;47.44
80682;BME280;70045;40.200;44.582;2024-01-06T06:53:49;86742.31;;;4.67;47.84
80682;BME280;70045;40.200;44.582;2024-01-06T06:56:14;86749.31;;;4.74;47.34
80682;BME280;70045;40.200;44.582;2024-01-06T06:58:40;86750.75;;;4.71;47.65
80682;BME280;70045;40.200;44.582;2024-01-06T07:01:05;86750.38;;;4.69;49.19
80682;BME280;70045;40.200;44.582;2024-01-06T07:03:42;86762.53;;;4.72;49.50
80682;BME280;70045;40.200;44.582;2024-01-06T07:06:08;86761.53;;;4.88;49.86
80682;BME280;70045;40.200;44.582;2024-01-06T07:08:33;86757.53;;;4.94;48.60
80682;BME280;70045;40.200;44.582;2024-01-06T07:10:58;86761.22;;;4.93;48.45
80682;BME280;70045;40.200;44.582;2024-01-06T07:13:24;86764.56;;;5.01;48.24
80682;BME280;70045;40.200;44.582;2024-01-06T07:16:00;86772.31;;;5.12;47.28
80682;BME280;70045;40.200;44.582;2024-01-06T07:18:25;86759.59;;;5.26;47.71
80682;BME280;70045;40.200;44.582;2024-01-06T07:20:50;86764.31;;;5.24;46.44
80682;BME280;70045;40.200;44.582;2024-01-06T07:23:16;86766.56;;;5.29;47.31
80682;BME280;70045;40.200;44.582;2024-01-06T07:25:41;86768.72;;;5.20;46.71
80682;BME280;70045;40.200;44.582;2024-01-06T07:28:18;86762.97;;;5.44;46.71
80682;BME280;70045;40.200;44.582;2024-01-06T07:30:43;86783.47;;;5.34;45.28
80682;BME280;70045;40.200;44.582;2024-01-06T07:33:08;86787.56;;;5.38;46.08
80682;BME280;70045;40.200;44.582;2024-01-06T07:35:34;86785.41;;;5.47;45.27
80682;BME280;70045;40.200;44.582;2024-01-06T07:37:59;86788.38;;;5.57;45.28
80682;BME280;70045;40.200;44.582;2024-01-06T07:40:36;86789.19;;;5.72;45.32
80682;BME280;70045;40.200;44.582;2024-01-06T07:43:02;86791.78;;;5.72;45.33
80682;BME280;70045;40.200;44.582;2024-01-06T07:45:28;86783.69;;;5.73;44.91
80682;BME280;70045;40.200;44.582;2024-01-06T07:47:53;86786.69;;;5.90;45.57
80682;BME280;70045;40.200;44.582;2024-01-06T07:50:18;86789.63;;;5.92;45.33
80682;BME280;70045;40.200;44.582;2024-01-06T07:52:55;86782.75;;;6.03;45.36
80682;BME280;70045;40.200;44.582;2024-01-06T07:55:20;86788.59;;;6.00;45.72
80682;BME280;70045;40.200;44.582;2024-01-06T07:57:45;86789.06;;;6.20;45.32
80682;BME280;70045;40.200;44.582;2024-01-06T08:00:11;86780.22;;;6.32;44.78
80682;BME280;70045;40.200;44.582;2024-01-06T08:02:37;86772.56;;;6.46;44.13
80682;BME280;70045;40.200;44.582;2024-01-06T08:05:13;86779.56;;;6.56;43.68
80682;BME280;70045;40.200;44.582;2024-01-06T08:07:38;86777.72;;;6.68;43.40
80682;BME280;70045;40.200;44.582;2024-01-06T08:10:04;86777.72;;;7.32;42.47
80682;BME280;70045;40.200;44.582;2024-01-06T08:12:30;86768.47;;;8.66;40.48
80682;BME280;70045;40.200;44.582;2024-01-06T08:14:56;86770.53;;;9.80;38.51
80682;BME280;70045;40.200;44.582;2024-01-06T08:17:32;86773.81;;;10.84;36.07
80682;BME280;70045;40.200;44.582;2024-01-06T08:19:57;86774.03;;;11.47;36.16
80682;BME280;70045;40.200;44.582;2024-01-06T08:22:22;86766.09;;;11.78;35.06
80682;BME280;70045;40.200;44.582;2024-01-06T08:24:48;86770.13;;;12.03;33.83
80682;BME280;70045;40.200;44.582;2024-01-06T08:27:13;86773.91;;;12.42;34.50
80682;BME280;70045;40.200;44.582;2024-01-06T08:29:50;86765.75;;;12.96;32.93
80682;BME280;70045;40.200;44.582;2024-01-06T08:32:15;86767.88;;;13.54;34.31
80682;BME280;70045;40.200;44.582;2024-01-06T08:34:41;86769.50;;;14.10;32.61
80682;BME280;70045;40.200;44.582;2024-01-06T08:37:06;86769.91;;;14.09;30.82
80682;BME280;70045;40.200;44.582;2024-01-06T08:39:31;86770.56;;;14.42;30.70
80682;BME280;70045;40.200;44.582;2024-01-06T08:42:08;86761.56;;;14.60;29.71
80682;BME280;70045;40.200;44.582;2024-01-06T08:44:33;86756.47;;;14.82;29.63
80682;BME280;70045;40.200;44.582;2024-01-06T08:46:58;86759.66;;;15.41;31.11
80682;BME280;70045;40.200;44.582;2024-01-06T08:49:24;86766.38;;;16.03;29.41
80682;BME280;70045;40.200;44.582;2024-01-06T08:51:49;86759.03;;;16.67;28.45
80682;BME280;70045;40.200;44.582;2024-01-06T08:54:26;86760.59;;;17.09;24.69
80682;BME280;70045;40.200;44.582;2024-01-06T08:56:51;86759.44;;;17.41;23.67
80682;BME280;70045;40.200;44.582;2024-01-06T08:59:16;86759.25;;;17.85;27.46
80682;BME280;70045;40.200;44.582;2024-01-06T09:01:42;86762.25;;;18.15;25.64
80682;BME280;70045;40.200;44.582;2024-01-06T09:04:07;86749.59;;;18.51;24.11
80682;BME280;70045;40.200;44.582;2024-01-06T09:06:44;86758.19;;;18.88;22.06
80682;BME280;70045;40.200;44.582;2024-01-06T09:09:09;86744.75;;;19.05;21.41
80682;BME280;70045;40.200;44.582;2024-01-06T09:11:34;86740.91;;;19.24;24.00
80682;BME280;70045;40.200;44.582;2024-01-06T09:14:00;86744.75;;;19.47;23.19
80682;BME280;70045;40.200;44.582;2024-01-06T09:16:25;86741.97;;;19.51;20.91
80682;BME280;70045;40.200;44.582;2024-01-06T09:19:02;86748.16;;;19.38;20.86
80682;BME280;70045;40.200;44.582;2024-01-06T09:21:27;86752.97;;;19.73;23.84
80682;BME280;70045;40.200;44.582;2024-01-06T09:23:52;86745.59;;;19.96;21.93
80682;BME280;70045;40.200;44.582;2024-01-06T09:26:18;86748.66;;;20.43;21.92
80682;BME280;70045;40.200;44.582;2024-01-06T09:28:44;86748.13;;;20.63;21.25
80682;BME280;70045;40.200;44.582;2024-01-06T09:31:20;86749.16;;;20.80;20.74
80682;BME280;70045;40.200;44.582;2024-01-06T09:33:45;86749.16;;;20.56;19.63
80682;BME280;70045;40.200;44.582;2024-01-06T09:36:10;86747.66;;;20.40;20.54
80682;BME280;70045;40.200;44.582;2024-01-06T09:38:36;86745.53;;;20.54;21.90
80682;BME280;70045;40.200;44.582;2024-01-06T09:41:01;86746.53;;;21.10;21.15
80682;BME280;70045;40.200;44.582;2024-01-06T09:43:38;86749.25;;;21.16;18.56
80682;BME280;70045;40.200;44.582;2024-01-06T09:46:11;86749.44;;;21.12;19.76
80682;BME280;70045;40.200;44.582;2024-01-06T09:48:40;86745.13;;;20.70;19.31
80682;BME280;70045;40.200;44.582;2024-01-06T09:51:10;86740.13;;;20.48;19.14
80682;BME280;70045;40.200;44.582;2024-01-06T09:53:36;86746.22;;;18.13;20.85
80682;BME280;70045;40.200;44.582;2024-01-06T09:56:15;86751.38;;;15.55;22.96
80682;BME280;70045;40.200;44.582;2024-01-06T09:58:41;86742.13;;;14.19;25.64
80682;BME280;70045;40.200;44.582;2024-01-06T10:01:08;86752.63;;;13.36;27.45
80682;BME280;70045;40.200;44.582;2024-01-06T10:03:34;86767.56;;;12.63;27.25
80682;BME280;70045;40.200;44.582;2024-01-06T10:06:00;86765.50;;;12.14;27.44
80682;BME280;70045;40.200;44.582;2024-01-06T10:08:35;86762.56;;;11.68;28.34
80682;BME280;70045;40.200;44.582;2024-01-06T10:11:01;86764.06;;;11.19;28.58
80682;BME280;70045;40.200;44.582;2024-01-06T10:13:26;86757.16;;;10.81;29.37
80682;BME280;70045;40.200;44.582;2024-01-06T10:15:52;86754.97;;;10.80;29.35
80682;BME280;70045;40.200;44.582;2024-01-06T10:18:18;86762.06;;;10.45;30.12
80682;BME280;70045;40.200;44.582;2024-01-06T10:20:54;86767.69;;;10.40;30.27
80682;BME280;70045;40.200;44.582;2024-01-06T10:23:19;86754.88;;;10.25;28.69
80682;BME280;70045;40.200;44.582;2024-01-06T10:25:47;86755.78;;;10.11;29.28
80682;BME280;70045;40.200;44.582;2024-01-06T10:28:12;86763.34;;;9.98;29.82
80682;BME280;70045;40.200;44.582;2024-01-06T10:30:38;86750.16;;;9.82;29.80
80682;BME280;70045;40.200;44.582;2024-01-06T10:33:13;86757.03;;;9.61;29.33
80682;BME280;70045;40.200;44.582;2024-01-06T10:35:39;86751.28;;;9.43;29.72
80682;BME280;70045;40.200;44.582;2024-01-06T10:38:06;86754.22;;;9.45;29.81
80682;BME280;70045;40.200;44.582;2024-01-06T10:40:32;86758.28;;;9.46;30.42
80682;BME280;70045;40.200;44.582;2024-01-06T10:42:59;86755.75;;;9.39;29.90
80682;BME280;70045;40.200;44.582;2024-01-06T10:45:36;86758.50;;;9.17;30.13
80682;BME280;70045;40.200;44.582;2024-01-06T10:48:01;86760.78;;;9.12;30.54
80682;BME280;70045;40.200;44.582;2024-01-06T10:50:30;86768.59;;;9.04;31.04
80682;BME280;70045;40.200;44.582;2024-01-06T10:52:56;86770.09;;;8.98;30.92
80682;BME280;70045;40.200;44.582;2024-01-06T10:55:23;86770.84;;;8.99;30.67
80682;BME280;70045;40.200;44.582;2024-01-06T10:58:02;86764.22;;;8.94;31.12
80682;BME280;70045;40.200;44.582;2024-01-06T11:00:29;86779.09;;;8.79;31.59
80682;BME280;70045;40.200;44.582;2024-01-06T11:02:55;86779.13;;;8.76;32.08
80682;BME280;70045;40.200;44.582;2024-01-06T11:05:21;86765.47;;;8.75;31.58
80682;BME280;70045;40.200;44.582;2024-01-06T11:07:48;86764.41;;;8.65;31.77
80682;BME280;70045;40.200;44.582;2024-01-06T11:10:23;86756.00;;;8.54;30.82
80682;BME280;70045;40.200;44.582;2024-01-06T11:13:11;86772.63;;;8.50;31.84
80682;BME280;70045;40.200;44.582;2024-01-06T11:15:52;86769.69;;;8.47;32.52
80682;BME280;70045;40.200;44.582;2024-01-06T11:18:39;86765.94;;;8.56;32.63
80682;BME280;70045;40.200;44.582;2024-01-06T11:21:16;86765.66;;;8.32;32.91
80682;BME280;70045;40.200;44.582;2024-01-06T11:23:41;86774.19;;;8.22;32.63
80682;BME280;70045;40.200;44.582;2024-01-06T11:26:07;86764.91;;;8.35;32.55
80682;BME280;70045;40.200;44.582;2024-01-06T11:28:46;86763.78;;;8.43;32.92
80682;BME280;70045;40.200;44.582;2024-01-06T11:31:13;86772.66;;;8.42;33.50
80682;BME280;70045;40.200;44.582;2024-01-06T11:33:51;86782.97;;;8.39;32.94
80682;BME280;70045;40.200;44.582;2024-01-06T11:36:16;86778.22;;;8.30;33.06
80682;BME280;70045;40.200;44.582;2024-01-06T11:38:42;86785.59;;;8.32;34.30
80682;BME280;70045;40.200;44.582;2024-01-06T11:41:07;86785.59;;;8.35;33.76
80682;BME280;70045;40.200;44.582;2024-01-06T11:43:38;86778.50;;;8.50;33.16
80682;BME280;70045;40.200;44.582;2024-01-06T11:46:14;86781.88;;;8.43;33.79
80682;BME280;70045;40.200;44.582;2024-01-06T11:48:39;86783.69;;;8.46;34.15
80682;BME280;70045;40.200;44.582;2024-01-06T11:51:05;86794.72;;;8.61;33.35
80682;BME280;70045;40.200;44.582;2024-01-06T11:53:30;86806.88;;;8.68;33.92
80682;BME280;70045;40.200;44.582;2024-01-06T11:55:56;86804.66;;;8.66;34.33
80682;BME280;70045;40.200;44.582;2024-01-06T11:58:31;86821.59;;;8.71;33.29
80682;BME280;70045;40.200;44.582;2024-01-06T12:00:57;86818.00;;;8.58;33.04
80682;BME280;70045;40.200;44.582;2024-01-06T12:03:22;86822.78;;;8.52;33.58
80682;BME280;70045;40.200;44.582;2024-01-06T12:05:59;86821.31;;;8.55;33.98
80682;BME280;70045;40.200;44.582;2024-01-06T12:08:25;86829.84;;;8.44;33.88
80682;BME280;70045;40.200;44.582;2024-01-06T12:11:28;86831.34;;;8.45;33.39
80682;BME280;70045;40.200;44.582;2024-01-06T12:13:54;86836.50;;;8.45;33.32
80682;BME280;70045;40.200;44.582;2024-01-06T12:16:19;86841.28;;;8.51;32.84
80682;BME280;70045;40.200;44.582;2024-01-06T12:18:44;86844.59;;;8.55;32.55
80682;BME280;70045;40.200;44.582;2024-01-06T12:21:23;86844.22;;;8.56;31.82
80682;BME280;70045;40.200;44.582;2024-01-06T12:23:49;86859.00;;;8.48;31.49
80682;BME280;70045;40.200;44.582;2024-01-06T12:26:16;86860.13;;;8.47;32.32
80682;BME280;70045;40.200;44.582;2024-01-06T12:28:44;86861.22;;;8.39;31.45
80682;BME280;70045;40.200;44.582;2024-01-06T12:31:10;86867.50;;;8.45;33.03
80682;BME280;70045;40.200;44.582;2024-01-06T12:33:46;86864.16;;;8.48;32.03
80682;BME280;70045;40.200;44.582;2024-01-06T12:36:11;86870.84;;;8.42;32.90
80682;BME280;70045;40.200;44.582;2024-01-06T12:38:37;86870.06;;;8.42;33.35
80682;BME280;70045;40.200;44.582;2024-01-06T12:41:04;86863.47;;;8.30;33.66
80682;BME280;70045;40.200;44.582;2024-01-06T12:43:29;86861.69;;;8.09;34.34
80682;BME280;70045;40.200;44.582;2024-01-06T12:46:05;86849.50;;;8.06;33.32
80682;BME280;70045;40.200;44.582;2024-01-06T12:48:31;86857.28;;;7.95;33.81
80682;BME280;70045;40.200;44.582;2024-01-06T12:50:56;86852.88;;;7.78;33.96
80682;BME280;70045;40.200;44.582;2024-01-06T12:53:22;86859.16;;;7.77;33.60
80682;BME280;70045;40.200;44.582;2024-01-06T12:55:47;86864.69;;;7.68;33.71
80682;BME280;70045;40.200;44.582;2024-01-06T12:58:23;86862.13;;;7.64;33.04
80682;BME280;70045;40.200;44.582;2024-01-06T13:00:49;86865.78;;;7.60;34.15
80682;BME280;70045;40.200;44.582;2024-01-06T13:03:14;86850.34;;;7.49;34.25